Dobbins Air Reserve Base Airport
KMGE : now visible

Airfield :











YOU CAN JOIN US ON...

 
LOGIN :

Register | Disclaimer

   EN    FR    IT 

 









Legend :    VFR   Marginal VFR   IFR   Intensive IFR   Very Intensive IFR
Visi :
Ceiling :
>= 8 km
>= 3000ft
5 to 8 km
1000 to 3000 ft
1500m to 5 km
500 to 1000 ft
800 to 1500m
200 to 500 ft
< 800m
< 200 ft
Symbols :   Thunderstorms  Fog  Heavy snow  Heavy precipitations  Wind > 20 kt






- Airport Elevation : 1068 ft


KMGE - Dobbins Air Reserve Base

CURRENT METAR :
  • 151747Z 31005KT 2SM -RA BR OVC005 08/08 A3011 RMK AO2A $

EXPIRED METARs :
  • 151656Z 33005KT 1 1/2SM -RA BR OVC005 08/07 A3013 RMK AO2A SLP208 P0003 T00780074 $
  • 151612Z 36004KT 1 1/4SM -RA BR BKN003 OVC011 07/07 A3015 RMK AO2A $
  • 151602Z 33005KT 1 1/2SM -RA BR BKN003 OVC013 07/07 A3015 RMK AO2A $
  • 151551Z VRB04KT 1 1/2SM -RA BR BKN005 OVC013 07/07 A3015 RMK AO2A $
  • 151517Z 31006KT 1 1/4SM -RA BR BKN005 OVC013 07/06 A3015 RMK AO2A $
  • 151456Z 32005KT 1 3/4SM -RA BR BKN006 OVC013 07/06 A3015 RMK AO2A SLP215 P0003 60006 T00660062 50001 $

TAF COR TAF KMGE
Valid from the 15 at 14:00 until the 16 at 20:00 UTC


151434Z 1514/1620 33005KT 8000 -RA SCT008 BKN015 OVC030 QNH3014INS
BECMG 1514/1515 33005KT 3200 -RA BKN006 OVC015 QNH3012INS
TEMPO 1515/1519 6000 BKN008 OVC020
BECMG 1518/1519 33005KT 8000 -RA BKN015 OVC040 QNH3009INS
BECMG 1600/1601 31005KT 9999 NSW BKN020 OVC050 QNH3005INS
BECMG 1608/1609 29005KT 9999 SCT020 SCT120 SCT250 QNH3005INS TX11/1520Z TN02/1611Z



MET'MAP, your aeronautical weather chart ! - Copyright ORBIFLY December 2007 - Disclaimer

ORBIFLY MET'MAP TEAM :

Programming & Development : Alexandra Zaïnal
Concept & Development : Baudouin d'Aumeries
Co-Development & Prog : Marc-Olivier Méhu
Technical & hardware support : Manuel Goepfert

Contact : metmap@orbifly.com




SOURCES & CREDITS :

   NOAA       Earth
Advisory